Time;durP1;ratioP1;P1;durP2;ratioP2;P2;SDS_P1;SDS_P2;PMS_P1;PMS_P2;Temp;Humidity;BMP_temperature;BMP_pressure;BME280_temperature;BME280_humidity;BME280_pressure;Samples;Min_cycle;Max_cycle;Signal;HPM_P1;HPM_P2
2021/08/25 00:00:34;;;;;;;15.82;9.98;;;;;;;10.28;84.33;91161.78;5019089;28;20031;-86
2021/08/25 00:03:12;;;;;;;18.67;10.65;;;;;;;10.17;84.53;91153.56;5003264;28;20021;-86
2021/08/25 00:05:48;;;;;;;16.98;10.70;;;;;;;10.24;84.67;91161.63;5019562;28;20029;-86
2021/08/25 00:08:24;;;;;;;17.67;10.77;;;;;;;10.15;85.10;91166.16;5035940;28;20555;-85
2021/08/25 00:11:02;;;;;;;18.13;11.32;;;;;;;10.23;84.80;91164.56;5001791;28;20033;-85
2021/08/25 00:13:41;;;;;;;15.52;10.60;;;;;;;10.43;83.71;91174.25;5035294;28;20032;-86
2021/08/25 00:16:18;;;;;;;20.63;10.50;;;;;;;10.44;83.60;91170.56;5017937;28;20033;-85
2021/08/25 00:18:59;;;;;;;17.80;10.55;;;;;;;10.24;84.67;91161.63;5035097;28;20024;-86
2021/08/25 00:21:37;;;;;;;20.70;11.55;;;;;;;10.40;83.82;91156.66;5017695;28;20025;-86
2021/08/25 00:24:18;;;;;;;16.45;10.75;;;;;;;10.35;84.23;91153.47;5002753;28;20111;-86
2021/08/25 00:26:56;;;;;;;17.00;11.07;;;;;;;10.18;84.72;91143.94;5031093;28;20021;-86
2021/08/25 00:29:30;;;;;;;19.00;11.40;;;;;;;10.34;84.26;91147.50;5017425;28;20428;-87
2021/08/25 00:32:03;;;;;;;;;;;;;;;10.38;83.85;91150.97;5030954;28;20041;-86
2021/08/25 00:34:39;;;;;;;18.08;10.25;;;;;;;10.33;84.35;91142.63;5040600;28;19925;-86
2021/08/25 00:37:10;;;;;;;17.50;10.27;;;;;;;10.39;84.37;91136.09;4999935;28;20108;-85
2021/08/25 00:39:38;;;;;;;18.15;11.13;;;;;;;10.29;84.77;91139.88;5015175;28;20025;-88
2021/08/25 00:42:15;;;;;;;19.77;12.13;;;;;;;10.34;84.14;91142.28;4998541;28;20045;-86
2021/08/25 00:44:49;;;;;;;18.25;11.98;;;;;;;10.39;83.60;91139.50;5017854;28;20399;-85
2021/08/25 00:47:32;;;;;;;17.42;10.70;;;;;;;10.31;84.67;91137.72;4998699;28;20445;-86
2021/08/25 00:50:07;;;;;;;18.73;11.57;;;;;;;10.31;84.28;91129.91;4999351;28;20041;-86
2021/08/25 00:52:42;;;;;;;18.00;10.93;;;;;;;10.47;83.99;91138.66;5015150;28;20032;-86
2021/08/25 00:55:22;;;;;;;18.40;11.60;;;;;;;10.45;84.49;91129.63;5032322;28;20027;-85
2021/08/25 00:57:57;;;;;;;20.40;11.35;;;;;;;10.36;84.57;91127.09;5032547;28;20021;-86
2021/08/25 01:01:02;;;;;;;16.33;10.75;;;;;;;10.35;84.82;91130.00;5029534;28;20240;-86
2021/08/25 01:03:46;;;;;;;19.48;11.18;;;;;;;10.41;84.09;91123.53;5032356;28;20110;-86
2021/08/25 01:06:27;;;;;;;16.33;10.43;;;;;;;10.37;84.60;91120.81;5009894;28;20029;-87
2021/08/25 01:09:03;;;;;;;19.10;11.18;;;;;;;10.49;84.24;91120.06;5002575;28;20059;-86
2021/08/25 01:11:40;;;;;;;17.95;11.25;;;;;;;10.38;84.36;91124.94;5036013;28;20132;-85
2021/08/25 01:14:19;;;;;;;21.33;11.77;;;;;;;10.42;84.22;91114.63;5018890;28;20600;-85
2021/08/25 01:16:57;;;;;;;19.02;12.05;;;;;;;10.45;84.08;91125.16;5019813;28;20017;-86
2021/08/25 01:19:31;;;;;;;19.25;11.98;;;;;;;10.20;85.30;91113.13;5019610;28;20025;-87
2021/08/25 01:22:04;;;;;;;17.60;11.77;;;;;;;10.41;84.46;91120.94;5019589;28;20029;-86
2021/08/25 01:24:41;;;;;;;21.00;13.05;;;;;;;10.31;84.68;91114.25;5019873;28;20033;-86
2021/08/25 01:27:16;;;;;;;22.33;12.88;;;;;;;10.29;85.11;91119.81;5019415;28;20619;-85
2021/08/25 01:29:54;;;;;;;21.25;13.52;;;;;;;10.16;85.66;91107.78;5018755;28;20492;-84
2021/08/25 01:32:26;;;;;;;19.70;12.73;;;;;;;10.21;85.47;91105.00;5003284;28;20126;-85
2021/08/25 01:35:03;;;;;;;21.98;12.85;;;;;;;10.19;85.67;91107.16;5013915;28;20018;-85
2021/08/25 01:37:43;;;;;;;22.27;12.75;;;;;;;10.17;85.60;91113.75;5032587;28;20454;-86
2021/08/25 01:40:24;;;;;;;19.65;12.02;;;;;;;10.16;85.77;91114.84;5016771;28;20109;-86
2021/08/25 01:42:56;;;;;;;21.40;12.55;;;;;;;10.17;85.87;91118.97;5016949;28;20056;-87
2021/08/25 01:45:33;;;;;;;25.98;13.73;;;;;;;10.35;84.90;91120.34;4999950;28;20405;-87
2021/08/25 01:48:08;;;;;;;20.13;12.50;;;;;;;10.14;85.57;91109.97;5019726;28;20017;-87
2021/08/25 01:50:44;;;;;;;24.85;13.20;;;;;;;10.16;85.61;91125.25;5040313;28;20540;-87
2021/08/25 01:53:25;;;;;;;22.67;13.57;;;;;;;10.19;85.56;91116.81;5025453;28;20033;-86
2021/08/25 01:56:02;;;;;;;17.88;12.43;;;;;;;10.22;85.53;91119.53;5025707;28;20028;-86
2021/08/25 01:58:38;;;;;;;20.88;13.18;;;;;;;10.21;85.50;91109.41;5040880;28;20405;-87
2021/08/25 02:01:14;;;;;;;20.80;12.13;;;;;;;10.19;85.79;91117.56;5025103;28;20542;-87
2021/08/25 02:04:02;;;;;;;19.30;12.48;;;;;;;10.24;85.99;91114.00;5041987;28;20090;-88
2021/08/25 02:06:38;;;;;;;21.92;11.80;;;;;;;10.27;85.60;91106.34;5059478;28;20708;-86
2021/08/25 02:09:16;;;;;;;19.55;12.30;;;;;;;10.31;85.58;91113.50;5026767;28;20090;-87
2021/08/25 02:11:55;;;;;;;21.42;12.90;;;;;;;10.28;85.57;91107.88;5026058;28;20025;-88
2021/08/25 02:14:34;;;;;;;21.73;12.60;;;;;;;10.27;85.70;91103.72;5026799;28;20111;-87
2021/08/25 02:17:15;;;;;;;22.23;13.20;;;;;;;10.29;85.59;91100.81;5043825;28;20541;-86
2021/08/25 02:19:54;;;;;;;20.88;12.98;;;;;;;10.25;85.79;91095.50;5027567;28;20029;-88
2021/08/25 02:22:34;;;;;;;21.10;12.27;;;;;;;10.31;86.06;91109.06;5010918;28;20032;-86
2021/08/25 02:25:15;;;;;;;20.42;13.40;;;;;;;10.27;85.98;91101.13;5011277;28;20139;-86
2021/08/25 02:27:48;;;;;;;21.60;13.25;;;;;;;10.37;85.51;91094.75;5023496;28;20025;-87
2021/08/25 02:30:21;;;;;;;21.35;13.40;;;;;;;10.22;86.11;91097.94;5026255;28;20033;-88
2021/08/25 02:32:56;;;;;;;19.65;12.85;;;;;;;10.32;85.90;91089.75;5027560;28;20542;-88
2021/08/25 02:35:32;;;;;;;23.17;13.13;;;;;;;10.30;85.83;91089.31;5044176;28;20021;-87
2021/08/25 02:38:15;;;;;;;20.40;13.45;;;;;;;10.38;85.57;91098.88;5028667;28;20044;-88
2021/08/25 02:40:52;;;;;;;24.42;14.38;;;;;;;10.23;86.33;91083.84;5046059;28;20029;-87
2021/08/25 02:43:27;;;;;;;23.85;13.70;;;;;;;10.25;85.67;91085.06;5044835;28;20033;-88
2021/08/25 02:46:09;;;;;;;26.02;14.40;;;;;;;10.21;86.04;91076.34;5043424;28;20045;-88
2021/08/25 02:48:47;;;;;;;18.52;12.00;;;;;;;10.31;85.78;91083.00;5033382;28;20040;-86
2021/08/25 02:51:24;;;;;;;21.65;13.55;;;;;;;10.26;86.61;91078.00;5036224;28;20017;-86
2021/08/25 02:53:57;;;;;;;23.65;13.75;;;;;;;10.35;85.07;91081.28;5035305;28;20032;-85
2021/08/25 02:56:41;;;;;;;23.73;13.95;;;;;;;10.20;86.22;91074.06;5019351;28;20028;-85
2021/08/25 02:59:13;;;;;;;22.55;13.93;;;;;;;10.13;86.30;91063.41;5035755;28;20025;-86
2021/08/25 03:01:55;;;;;;;19.70;12.65;;;;;;;10.21;86.40;91072.97;5003525;28;20040;-85
2021/08/25 03:04:25;;;;;;;23.67;13.30;;;;;;;10.33;85.75;91070.44;5020911;28;20508;-86
2021/08/25 03:06:59;;;;;;;23.02;14.35;;;;;;;10.27;85.72;91067.25;5019444;28;20025;-86
2021/08/25 03:09:38;;;;;;;21.67;13.10;;;;;;;10.33;85.90;91070.44;5020828;28;20040;-86
2021/08/25 03:12:14;;;;;;;23.13;14.00;;;;;;;10.29;85.62;91056.53;5000551;28;20029;-85
2021/08/25 03:14:51;;;;;;;24.10;14.32;;;;;;;10.14;86.03;91051.88;5016316;28;20025;-85
2021/08/25 03:17:28;;;;;;;22.30;13.48;;;;;;;10.16;86.35;91066.13;5000693;28;20025;-86
2021/08/25 03:20:08;;;;;;;27.48;14.98;;;;;;;10.23;86.25;91070.81;5000468;28;20026;-86
2021/08/25 03:22:40;;;;;;;26.98;14.30;;;;;;;10.23;85.84;91065.59;4984213;28;20029;-86
2021/08/25 03:25:22;;;;;;;22.63;13.70;;;;;;;10.21;85.92;91067.75;5015590;28;20029;-86
2021/08/25 03:28:01;;;;;;;21.13;13.18;;;;;;;10.31;85.51;91066.63;5017404;28;20029;-86
2021/08/25 03:30:34;;;;;;;19.23;12.25;;;;;;;10.10;85.69;91061.44;5000362;28;20029;-85
2021/08/25 03:33:13;;;;;;;21.98;12.88;;;;;;;10.08;85.81;91058.41;5016300;28;20108;-87
2021/08/25 03:35:52;;;;;;;18.88;12.40;;;;;;;9.96;86.13;91057.25;4983974;28;20667;-84
2021/08/25 03:38:25;;;;;;;20.52;12.80;;;;;;;9.97;86.11;91045.03;5015433;28;20041;-86
2021/08/25 03:41:04;;;;;;;19.30;11.90;;;;;;;9.99;86.58;91050.66;5015907;28;20029;-86
2021/08/25 03:43:43;;;;;;;18.98;11.60;;;;;;;10.07;86.25;91039.41;4999663;28;20497;-86
2021/08/25 03:46:21;;;;;;;20.63;12.45;;;;;;;10.07;86.06;91042.03;5015487;28;20029;-84
2021/08/25 03:48:58;;;;;;;18.20;11.70;;;;;;;10.14;85.92;91044.06;5000297;28;20088;-86
2021/08/25 03:51:35;;;;;;;22.30;13.23;;;;;;;10.09;86.18;91036.47;5008866;28;20085;-89
2021/08/25 03:54:13;;;;;;;21.13;12.38;;;;;;;10.04;86.24;91027.78;5027077;28;20040;-86
2021/08/25 03:56:49;;;;;;;18.50;11.95;;;;;;;10.08;86.33;91029.75;5002287;28;20033;-86
2021/08/25 03:59:30;;;;;;;23.17;12.73;;;;;;;10.05;86.67;91020.75;5003231;28;20029;-86
2021/08/25 04:02:08;;;;;;;21.13;12.90;;;;;;;10.19;86.18;91033.47;5037184;23;20044;-87
2021/08/25 04:04:46;;;;;;;23.33;14.30;;;;;;;10.02;86.55;91022.13;5019993;28;20025;-88
2021/08/25 04:07:26;;;;;;;24.00;14.32;;;;;;;9.97;86.93;91019.75;5019807;28;20021;-87
2021/08/25 04:09:59;;;;;;;23.10;13.75;;;;;;;9.96;86.90;91028.63;5018732;28;20029;-88
2021/08/25 04:12:38;;;;;;;22.60;14.27;;;;;;;9.96;86.64;91031.22;5030525;28;20033;-87
2021/08/25 04:15:18;;;;;;;20.45;13.10;;;;;;;10.09;85.99;91034.63;5016008;28;20025;-88
2021/08/25 04:17:56;;;;;;;22.85;13.90;;;;;;;10.12;86.34;91039.19;4999551;28;20033;-88
2021/08/25 04:20:30;;;;;;;26.73;15.13;;;;;;;9.97;86.66;91040.56;5031636;28;20087;-88
2021/08/25 04:23:08;;;;;;;22.08;12.57;;;;;;;10.03;85.90;91031.50;5014947;28;20119;-88
2021/08/25 04:25:37;;;;;;;22.88;12.82;;;;;;;9.86;86.91;91042.06;4994269;28;20029;-87
2021/08/25 04:28:16;;;;;;;19.00;12.07;;;;;;;10.05;85.27;91050.13;4995438;28;20077;-88
2021/08/25 04:30:53;;;;;;;18.83;11.25;;;;;;;10.04;85.34;91048.63;4978801;28;20022;-88
2021/08/25 04:33:32;;;;;;;16.95;11.25;;;;;;;10.03;85.25;91041.91;4995647;28;20025;-87
2021/08/25 04:36:12;;;;;;;17.52;11.18;;;;;;;9.96;85.52;91040.88;5011197;28;20029;-87
2021/08/25 04:38:48;;;;;;;17.35;10.52;;;;;;;9.98;85.77;91049.91;5012371;28;20486;-87
2021/08/25 04:41:30;;;;;;;20.35;11.93;;;;;;;10.04;85.51;91045.25;4993428;28;20029;-88
2021/08/25 04:44:05;;;;;;;16.17;10.07;;;;;;;10.06;85.63;91045.69;4998321;28;20026;-87
2021/08/25 04:46:43;;;;;;;19.35;10.40;;;;;;;10.13;85.30;91038.13;4997322;28;20679;-85
2021/08/25 04:49:21;;;;;;;19.90;10.60;;;;;;;10.00;85.40;91037.34;5014329;28;20029;-87
2021/08/25 04:52:00;;;;;;;16.77;10.18;;;;;;;9.99;86.08;91041.00;5031716;28;20029;-87
2021/08/25 04:54:39;;;;;;;16.73;10.32;;;;;;;10.04;85.77;91043.41;4999126;28;20021;-87
2021/08/25 04:57:12;;;;;;;17.50;10.52;;;;;;;10.01;85.59;91038.84;5014743;28;20478;-87
2021/08/25 04:59:50;;;;;;;18.83;10.82;;;;;;;10.05;85.66;91041.56;4998687;28;20049;-88
2021/08/25 05:02:30;;;;;;;18.85;10.70;;;;;;;9.96;85.99;91040.88;4999712;28;20429;-87
2021/08/25 05:05:04;;;;;;;17.80;11.20;;;;;;;9.95;86.07;91040.13;5000259;28;20108;-88
2021/08/25 05:07:45;;;;;;;17.23;10.73;;;;;;;10.00;84.96;91036.53;5015001;28;20623;-87
2021/08/25 05:10:19;;;;;;;17.23;10.27;;;;;;;9.96;85.97;91049.44;4982128;28;20450;-87
2021/08/25 05:13:00;;;;;;;18.00;10.52;;;;;;;10.02;85.66;91045.56;5014567;28;20030;-87
2021/08/25 05:15:37;;;;;;;15.25;9.40;;;;;;;10.08;85.15;91045.38;4998768;28;20025;-87
2021/08/25 05:18:11;;;;;;;17.17;10.38;;;;;;;9.86;85.55;91049.88;5013965;28;20037;-87
2021/08/25 05:20:44;;;;;;;14.98;9.48;;;;;;;10.00;85.41;91047.75;5014242;28;20140;-87
2021/08/25 05:23:27;;;;;;;14.88;9.32;;;;;;;9.96;85.96;91046.84;4996889;28;20033;-87
2021/08/25 05:26:01;;;;;;;16.45;10.35;;;;;;;10.02;85.34;91044.81;4999582;28;20052;-87
2021/08/25 05:28:38;;;;;;;15.05;9.48;;;;;;;10.14;85.17;91051.88;5033397;28;20160;-87
2021/08/25 05:31:10;;;;;;;14.80;9.70;;;;;;;10.10;85.08;91051.00;5013719;28;20120;-87
2021/08/25 05:33:44;;;;;;;15.48;9.38;;;;;;;10.02;85.05;91050.00;5014838;28;20112;-87
2021/08/25 05:36:25;;;;;;;13.90;9.32;;;;;;;10.04;85.43;91048.63;4997603;28;20022;-88
2021/08/25 05:39:01;;;;;;;15.50;9.07;;;;;;;10.12;84.85;91049.63;5015048;28;20030;-87
2021/08/25 05:41:33;;;;;;;13.35;8.20;;;;;;;10.21;84.78;91060.72;4997775;28;20605;-87
2021/08/25 05:44:14;;;;;;;13.65;8.75;;;;;;;10.14;84.33;91060.50;5013121;28;20436;-87
2021/08/25 05:46:51;;;;;;;14.63;9.73;;;;;;;10.03;83.80;91057.53;4997458;28;20029;-87
2021/08/25 05:49:28;;;;;;;14.35;9.18;;;;;;;10.00;84.63;91062.59;4997135;28;20033;-87
2021/08/25 05:52:05;;;;;;;15.40;9.45;;;;;;;9.98;85.19;91052.50;4998214;28;20055;-87
2021/08/25 05:54:39;;;;;;;15.27;9.55;;;;;;;10.04;84.16;91053.84;4997625;28;20739;-88
2021/08/25 05:57:19;;;;;;;14.40;8.98;;;;;;;10.13;84.84;91056.34;5013820;28;20052;-88
2021/08/25 05:59:56;;;;;;;12.93;9.27;;;;;;;10.12;83.65;91059.28;5011845;28;20060;-85
2021/08/25 06:02:36;;;;;;;14.20;9.02;;;;;;;10.24;83.89;91062.66;4998185;28;20026;-85
2021/08/25 06:05:12;;;;;;;13.45;8.73;;;;;;;10.09;84.09;91055.47;4983463;28;20489;-87
2021/08/25 06:07:46;;;;;;;13.65;8.40;;;;;;;10.10;84.58;91061.44;5032017;28;20079;-87
2021/08/25 06:10:15;;;;;;;12.48;7.85;;;;;;;10.09;85.14;91057.31;4991062;28;20037;-87
2021/08/25 06:12:41;;;;;;;16.60;9.57;;;;;;;10.12;83.38;91060.03;4997183;28;20481;-87
2021/08/25 06:15:08;;;;;;;14.43;8.45;;;;;;;10.00;84.50;91055.56;4997463;28;20022;-87
2021/08/25 06:17:36;;;;;;;16.42;9.15;;;;;;;10.14;84.88;91062.31;5030035;28;20246;-87
2021/08/25 06:20:06;;;;;;;14.43;8.57;;;;;;;10.26;83.29;91050.13;5016426;28;20025;-87
2021/08/25 06:22:32;;;;;;;14.85;8.93;;;;;;;10.34;82.77;91056.31;5014178;28;20428;-87
2021/08/25 06:24:57;;;;;;;14.35;8.77;;;;;;;10.32;83.42;91063.72;5014630;28;20036;-88
2021/08/25 06:27:26;;;;;;;13.50;8.77;;;;;;;10.31;83.55;91072.59;5013739;28;20047;-86
2021/08/25 06:29:53;;;;;;;13.63;8.93;;;;;;;10.31;83.01;91062.16;5030872;28;20021;-86
2021/08/25 06:32:20;;;;;;;14.88;8.75;;;;;;;10.31;83.16;91062.16;4993236;28;20022;-86
2021/08/25 06:34:46;;;;;;;13.65;8.10;;;;;;;10.47;83.13;91055.28;5013658;28;20022;-86
2021/08/25 06:37:12;;;;;;;15.82;8.98;;;;;;;10.46;82.51;91055.59;5014908;28;20013;-85
2021/08/25 06:39:37;;;;;;;12.90;8.05;;;;;;;10.47;81.88;91054.50;4987836;28;20021;-86
2021/08/25 06:42:04;;;;;;;13.60;8.25;;;;;;;10.51;82.66;91053.53;5016931;28;20648;-85
2021/08/25 06:44:29;;;;;;;15.35;8.75;;;;;;;10.56;82.54;91057.75;5016224;28;20060;-86
2021/08/25 06:46:58;;;;;;;14.25;8.07;;;;;;;10.56;80.98;91062.97;5016012;28;20030;-86
2021/08/25 06:49:26;;;;;;;11.32;7.72;;;;;;;10.41;81.33;91061.75;5000597;28;20025;-87
2021/08/25 06:51:52;;;;;;;11.95;7.80;;;;;;;10.44;80.81;91040.28;5013289;28;20018;-87
2021/08/25 06:54:18;;;;;;;12.90;7.80;;;;;;;10.42;82.03;91050.25;4996634;28;20037;-86
2021/08/25 06:56:45;;;;;;;12.43;7.85;;;;;;;10.42;81.19;91047.66;4997321;28;20029;-87
2021/08/25 06:59:14;;;;;;;11.98;7.75;;;;;;;10.62;81.88;91055.72;5013447;28;20025;-87
2021/08/25 07:01:43;;;;;;;14.38;8.77;;;;;;;10.50;80.72;91054.63;5005801;28;20082;-87
2021/08/25 07:04:11;;;;;;;14.23;8.73;;;;;;;10.56;81.27;91057.00;4996248;28;20026;-86
2021/08/25 07:06:37;;;;;;;14.10;8.18;;;;;;;10.55;80.54;91050.28;5011116;28;20037;-87
2021/08/25 07:09:05;;;;;;;12.35;8.10;;;;;;;10.68;81.59;91059.66;5014151;28;20472;-86
2021/08/25 07:11:35;;;;;;;14.60;6.85;;;;;;;10.71;81.40;91059.00;4982534;28;20060;-87
2021/08/25 07:14:01;;;;;;;11.82;6.97;;;;;;;10.88;79.72;91064.00;5013162;28;20034;-87
2021/08/25 07:16:33;;;;;;;12.63;7.65;;;;;;;10.74;80.92;91058.34;5015309;28;20481;-86
2021/08/25 07:19:00;;;;;;;13.98;8.13;;;;;;;10.83;79.10;91056.41;4998069;28;20026;-87
2021/08/25 07:21:26;;;;;;;13.48;7.57;;;;;;;10.83;80.38;91051.19;4972762;28;20030;-87
2021/08/25 07:23:52;;;;;;;10.63;7.68;;;;;;;10.96;80.67;91052.72;4979430;28;20405;-86
2021/08/25 07:26:18;;;;;;;10.57;7.45;;;;;;;11.12;80.17;91052.81;4987483;28;20084;-88
2021/08/25 07:28:44;;;;;;;14.70;7.32;;;;;;;11.27;79.61;91063.66;5012682;28;20059;-87
2021/08/25 07:31:14;;;;;;;11.70;7.60;;;;;;;11.18;79.26;91058.56;5015164;28;20053;-86
2021/08/25 07:33:40;;;;;;;12.77;7.88;;;;;;;11.23;78.55;91047.91;5014574;28;20394;-87
2021/08/25 07:36:07;;;;;;;12.52;7.95;;;;;;;11.17;78.77;91051.84;5015338;28;20017;-87
2021/08/25 07:38:34;;;;;;;12.15;7.60;;;;;;;11.19;78.40;91054.88;5014910;28;20079;-86
2021/08/25 07:41:02;;;;;;;11.23;6.95;;;;;;;11.44;79.10;91053.75;5014299;28;20033;-87
2021/08/25 07:43:28;;;;;;;10.90;7.05;;;;;;;11.63;77.90;91055.03;5012290;28;20192;-87
2021/08/25 07:45:54;;;;;;;13.50;7.97;;;;;;;11.47;76.98;91053.09;4997371;28;20059;-87
2021/08/25 07:48:20;;;;;;;12.77;7.63;;;;;;;11.35;77.73;91055.72;4999399;28;20114;-86
2021/08/25 07:50:52;;;;;;;12.65;7.35;;;;;;;11.38;78.65;91060.28;4982606;28;20630;-87
2021/08/25 07:53:19;;;;;;;13.05;7.43;;;;;;;11.54;79.19;91059.59;5015382;28;20025;-87
2021/08/25 07:55:45;;;;;;;11.75;7.63;;;;;;;11.59;78.69;91064.59;4998062;28;20031;-86
2021/08/25 07:58:13;;;;;;;9.80;6.85;;;;;;;11.62;78.28;91063.94;4998810;28;20026;-87
2021/08/25 08:00:38;;;;;;;11.15;7.03;;;;;;;11.67;76.45;91066.31;5014068;28;20390;-87
2021/08/25 08:03:04;;;;;;;9.73;6.75;;;;;;;11.69;77.69;91071.97;5015340;28;20109;-86
2021/08/25 08:05:30;;;;;;;12.88;7.03;;;;;;;11.71;77.62;91067.94;5015345;28;20580;-87
2021/08/25 08:07:56;;;;;;;11.30;6.85;;;;;;;11.84;77.45;91060.88;5014793;28;20037;-87
2021/08/25 08:10:22;;;;;;;9.57;6.78;;;;;;;12.06;74.99;91051.00;5032523;28;20025;-87
2021/08/25 08:12:50;;;;;;;9.93;5.88;;;;;;;12.06;74.20;91056.22;5014843;28;20072;-87
2021/08/25 08:15:16;;;;;;;10.15;6.80;;;;;;;11.95;73.30;91051.47;5014768;28;20026;-87
2021/08/25 08:17:45;;;;;;;11.85;6.88;;;;;;;12.02;75.58;91050.16;4978898;28;20049;-86
2021/08/25 08:20:13;;;;;;;11.07;6.78;;;;;;;11.95;74.20;91046.25;4997717;28;20021;-87
2021/08/25 08:22:39;;;;;;;10.65;6.15;;;;;;;12.18;75.03;91048.31;4998802;28;20041;-86
2021/08/25 08:25:06;;;;;;;9.20;6.30;;;;;;;12.39;73.65;91041.03;5032599;28;20029;-87
2021/08/25 08:27:33;;;;;;;9.82;6.20;;;;;;;12.72;75.58;91050.44;5016352;28;20075;-87
2021/08/25 08:30:00;;;;;;;9.65;5.95;;;;;;;12.97;72.58;91052.84;4992157;28;20029;-87
2021/08/25 08:32:26;;;;;;;11.15;6.53;;;;;;;13.00;73.56;91044.34;4980593;28;20040;-87
2021/08/25 08:34:53;;;;;;;9.35;5.95;;;;;;;13.11;71.72;91051.34;4980008;28;20087;-87
2021/08/25 08:37:21;;;;;;;8.93;6.00;;;;;;;13.15;72.03;91061.91;4995983;28;20405;-87
2021/08/25 08:39:47;;;;;;;8.02;5.68;;;;;;;13.12;70.72;91063.31;5013787;28;20025;-87
2021/08/25 08:42:32;;;;;;;11.35;6.20;;;;;;;13.00;70.61;91065.25;4994153;28;20477;-87
2021/08/25 08:45:00;;;;;;;10.23;6.20;;;;;;;13.22;71.75;91067.28;5002198;28;20029;-87
2021/08/25 08:47:29;;;;;;;9.13;6.10;;;;;;;13.26;72.11;91055.06;5000352;28;20029;-89
2021/08/25 08:49:58;;;;;;;10.88;6.45;;;;;;;13.39;70.90;91061.72;5000252;28;20029;-89
2021/08/25 08:52:25;;;;;;;10.07;6.22;;;;;;;13.18;70.90;91039.50;4985850;28;20026;-88
2021/08/25 08:54:54;;;;;;;8.40;6.10;;;;;;;13.21;71.55;91044.06;5000023;28;20037;-88
2021/08/25 08:57:21;;;;;;;8.68;6.05;;;;;;;13.29;72.14;91043.16;4998965;28;20397;-88
2021/08/25 08:59:46;;;;;;;8.98;6.55;;;;;;;13.35;70.65;91050.38;5032261;28;20497;-87
2021/08/25 09:02:12;;;;;;;10.55;6.05;;;;;;;13.38;70.99;91043.72;5015347;28;20100;-87
2021/08/25 09:04:43;;;;;;;10.23;6.57;;;;;;;13.42;72.00;91049.78;5033852;28;20029;-87
2021/08/25 09:07:18;;;;;;;10.63;6.70;;;;;;;13.42;70.21;91049.78;5000064;28;20485;-87
2021/08/25 09:09:54;;;;;;;11.15;6.70;;;;;;;13.33;71.75;91051.84;5013916;28;20076;-88
2021/08/25 09:12:20;;;;;;;9.70;6.43;;;;;;;13.58;70.72;91062.84;4990857;28;20022;-88
2021/08/25 09:14:46;;;;;;;10.50;6.63;;;;;;;13.28;71.12;91050.22;4995911;28;20080;-89
2021/08/25 09:17:12;;;;;;;10.50;6.55;;;;;;;13.33;72.07;91055.22;4996344;28;20053;-88
2021/08/25 09:19:39;;;;;;;9.60;6.15;;;;;;;13.57;71.10;91058.72;4979534;28;20017;-87
2021/08/25 09:22:18;;;;;;;8.00;6.13;;;;;;;13.82;72.66;91065.22;5013061;28;20029;-88
2021/08/25 09:24:44;;;;;;;11.18;5.90;;;;;;;14.06;69.88;91058.19;4969120;28;20451;-87
2021/08/25 09:27:11;;;;;;;10.82;6.22;;;;;;;13.93;69.01;91060.22;4991099;28;20053;-87
2021/08/25 09:29:39;;;;;;;10.05;5.97;;;;;;;14.23;71.29;91062.25;4995627;28;20121;-87
2021/08/25 09:32:25;;;;;;;9.55;5.60;;;;;;;14.38;68.15;91055.41;4975136;28;20026;-87
2021/08/25 09:35:09;;;;;;;7.53;5.22;;;;;;;14.33;68.00;91059.09;5009751;28;20041;-88
2021/08/25 09:37:34;;;;;;;10.32;5.03;;;;;;;14.43;68.98;91053.28;5028465;28;20119;-87
2021/08/25 09:40:02;;;;;;;9.48;4.85;;;;;;;14.69;66.94;91049.25;4981045;28;20034;-88
2021/08/25 09:42:40;;;;;;;13.27;5.45;;;;;;;14.77;67.36;91050.88;4999079;28;20033;-87
2021/08/25 09:45:07;;;;;;;7.95;5.13;;;;;;;14.75;66.54;91051.22;4982233;28;20021;-86
2021/08/25 09:47:52;;;;;;;6.70;4.82;;;;;;;14.81;65.73;91062.97;5031173;28;20475;-88
2021/08/25 09:50:19;;;;;;;10.43;5.45;;;;;;;15.05;66.75;91059.22;5014570;28;20021;-87
2021/08/25 09:52:45;;;;;;;6.32;4.28;;;;;;;15.07;63.92;91048.38;5032510;28;20673;-88
2021/08/25 09:55:11;;;;;;;6.53;4.22;;;;;;;14.76;60.09;91052.75;4984612;28;20490;-88
2021/08/25 09:57:37;;;;;;;6.85;4.18;;;;;;;14.73;61.41;91050.81;4996444;28;20475;-87
2021/08/25 10:00:04;;;;;;;6.50;3.65;;;;;;;14.74;63.67;91052.34;4978018;28;20025;-87
2021/08/25 10:02:30;;;;;;;7.00;4.47;;;;;;;14.88;59.69;91043.97;5053041;23;20067;-86
2021/08/25 10:04:55;;;;;;;8.80;4.53;;;;;;;15.09;61.31;91046.16;5052786;28;20480;-86
2021/08/25 10:07:25;;;;;;;7.57;4.47;;;;;;;15.17;62.17;91047.03;5070577;28;20048;-86
2021/08/25 10:09:59;;;;;;;6.40;4.30;;;;;;;15.15;59.24;91052.59;5040107;28;20021;-86
2021/08/25 10:12:28;;;;;;;7.47;4.10;;;;;;;15.01;61.46;91045.28;5036668;28;20029;-87
2021/08/25 10:15:04;;;;;;;6.43;4.28;;;;;;;15.26;61.47;91045.69;5054191;28;20031;-86
2021/08/25 10:17:41;;;;;;;5.70;3.88;;;;;;;15.42;60.04;91039.50;5036844;28;20029;-86
2021/08/25 10:20:33;;;;;;;9.77;4.18;;;;;;;15.55;57.91;91040.81;5023658;28;20024;-86
2021/08/25 10:23:04;;;;;;;8.15;4.30;;;;;;;15.62;57.67;91034.88;5036211;28;20024;-86
2021/08/25 10:25:35;;;;;;;7.85;4.20;;;;;;;15.38;56.90;91051.84;5038464;28;20067;-87
2021/08/25 10:28:09;;;;;;;5.18;3.50;;;;;;;15.73;61.49;91052.34;5039700;28;20068;-86
2021/08/25 10:30:51;;;;;;;8.73;3.65;;;;;;;15.95;59.18;91045.47;5024249;28;20033;-87
2021/08/25 10:33:22;;;;;;;5.85;3.55;;;;;;;16.10;59.39;91032.50;5038404;28;20438;-86
2021/08/25 10:35:48;;;;;;;6.93;3.97;;;;;;;15.92;55.69;91037.56;5021655;28;20025;-86
2021/08/25 10:38:18;;;;;;;7.22;3.50;;;;;;;15.97;59.98;91021.47;5005506;28;20021;-86
2021/08/25 10:40:47;;;;;;;5.30;3.58;;;;;;;16.21;59.07;91033.38;5005057;28;20498;-86
2021/08/25 10:43:36;;;;;;;7.13;3.72;;;;;;;16.01;57.18;91046.69;5004041;28;20036;-86
2021/08/25 10:46:05;;;;;;;7.90;3.90;;;;;;;15.90;55.14;91029.25;5021087;28;20494;-86
2021/08/25 10:48:37;;;;;;;8.10;4.10;;;;;;;15.89;57.84;91035.63;5021740;28;20038;-86
2021/08/25 10:51:03;;;;;;;8.55;3.88;;;;;;;15.93;56.05;91012.78;5039608;28;20516;-85
2021/08/25 10:53:31;;;;;;;5.15;3.25;;;;;;;16.08;55.85;91011.84;5005236;28;20061;-86
2021/08/25 10:56:14;;;;;;;7.90;3.40;;;;;;;16.30;55.82;91004.94;5039455;28;20474;-86
2021/08/25 10:58:49;;;;;;;4.45;3.00;;;;;;;16.19;55.83;91004.06;5041933;28;20024;-87
2021/08/25 11:01:33;;;;;;;5.85;3.63;;;;;;;16.21;54.71;90996.56;5041403;28;20028;-87
2021/08/25 11:04:04;;;;;;;4.93;3.13;;;;;;;16.34;54.00;91012.88;5041837;28;20025;-86
2021/08/25 11:06:56;;;;;;;5.28;3.08;;;;;;;16.28;55.94;91007.16;5058304;28;20120;-85
2021/08/25 11:09:34;;;;;;;5.55;3.20;;;;;;;16.41;55.55;91005.06;5041421;28;20031;-86
2021/08/25 11:12:10;;;;;;;8.00;3.63;;;;;;;16.20;53.88;91001.06;5009212;28;20443;-86
2021/08/25 11:14:47;;;;;;;5.38;3.50;;;;;;;16.22;52.50;91003.38;5057476;28;20477;-86
2021/08/25 11:17:21;;;;;;;8.18;3.20;;;;;;;16.52;56.28;90998.00;5040483;28;20029;-88
2021/08/25 11:19:56;;;;;;;8.43;3.33;;;;;;;16.53;55.01;90986.38;5019380;28;20025;-86
2021/08/25 11:22:44;;;;;;;6.75;3.28;;;;;;;16.76;56.32;91001.25;5031875;28;20266;-87
2021/08/25 11:25:14;;;;;;;7.95;3.03;;;;;;;16.95;52.19;90995.78;5017814;28;20033;-86
2021/08/25 11:27:44;;;;;;;4.78;3.15;;;;;;;16.82;51.57;90994.53;5039861;28;20119;-87
2021/08/25 11:30:21;;;;;;;4.43;3.00;;;;;;;16.71;52.74;91007.56;5057211;28;20088;-86
2021/08/25 11:33:03;;;;;;;5.25;3.10;;;;;;;16.86;54.58;90992.69;5040749;28;20048;-86
2021/08/25 11:35:29;;;;;;;6.32;3.45;;;;;;;17.08;55.42;90988.34;5039890;28;20428;-86
2021/08/25 11:37:57;;;;;;;7.13;2.95;;;;;;;17.28;52.47;90997.53;5057789;28;20036;-86
2021/08/25 11:40:25;;;;;;;6.65;3.58;;;;;;;17.17;51.80;90991.41;5053911;28;20028;-86
2021/08/25 11:42:55;;;;;;;6.72;3.20;;;;;;;17.36;53.62;90988.53;5042455;28;20476;-87
2021/08/25 11:45:32;;;;;;;6.95;3.47;;;;;;;17.58;52.11;90992.03;5038649;28;20024;-86
2021/08/25 11:48:00;;;;;;;4.68;2.75;;;;;;;17.18;48.77;90992.94;5063794;28;20025;-88
2021/08/25 11:50:27;;;;;;;5.80;2.88;;;;;;;16.99;49.14;91001.81;5028594;28;20044;-90
2021/08/25 11:52:55;;;;;;;4.45;2.78;;;;;;;16.48;49.05;90994.59;5031942;28;20025;-85